Terminal Aerodrome Forecast
Issued by NWS Cleveland, OH

Home | Current Version | Previous Version | Text Only | Print | Product List | Glossary Off
Versions: 1 2 3 4 5 6 7 8 9 10 11 12 13 14 15

000
FTUS41 KCLE 160523
TAFERI
TAF
KERI 160523Z 1606/1706 36012KT P6SM OVC030
     FM160800 35008KT P6SM OVC035
     FM161900 32010KT P6SM SCT045
     FM170400 19004KT P6SM SCT060=

USA.gov is the U.S. government's official web portal to all federal, state and local government web resources and services.